Kimberly Turecamo — WDC6838 — position and weather

sailwx.info

Track history (hours):
 
Tides and Currents Weather Stations Pressure Air Temp Water Temp Dewpoint Dewpoint Depression Visibility Wind Speed Wind Dir Waves Ship Positions

Kimberly Turecamo

Owner: Moran Towing Corporation, New Canaan, CT. More information available from US FCC via Universal Licensing System and Coast Guard Vessel Documentation Center.

Last reported at 2015-Jul-01 12:31 UTC. Time now 2015-Jul-05 04:23 UTC.
Position N 40°38' W 074°07'.

Length 33 m; draft 5 m.

Type: Tug. MMSI: 367061980.

Date/timePositionNaut miles runAvg speedWind from/ knotsBaromVisibWave heightAir tempDewpointWater temp
2015-Jul-01 12:31N 40°38' W 074°07'0 0.0
2015-Jul-01 11:31N 40°38' W 074°07'0 0.5
2015-Jul-01 10:33N 40°38' W 074°08'0 0.0
2015-Jul-01 09:33N 40°38' W 074°08'0 0.0
2015-Jul-01 08:33N 40°38' W 074°08'0 0.0
2015-Jul-01 07:32N 40°38' W 074°08'0 0.0
2015-Jul-01 06:32N 40°38' W 074°08'0 0.0
2015-Jul-01 05:32N 40°38' W 074°08'0 0.0
2015-Jul-01 04:32N 40°38' W 074°08'0 0.0
2015-Jul-01 03:32N 40°38' W 074°08'0 0.0
2015-Jul-01 02:32N 40°38' W 074°08'0 0.0
2015-Jul-01 01:32N 40°38' W 074°08'0 0.0
2015-Jul-01 00:32N 40°38' W 074°08'0 0.0
2015-Jun-30 23:32N 40°38' W 074°08'0 0.0
2015-Jun-30 22:32N 40°38' W 074°08'0 0.0
2015-Jun-30 21:32N 40°38' W 074°08'0 0.0
2015-Jun-30 20:32N 40°38' W 074°08'0 0.0
2015-Jun-30 19:32N 40°38' W 074°08'0 0.0
2015-Jun-30 18:32N 40°38' W 074°08'0 0.0
2015-Jun-30 17:32N 40°38' W 074°08'0 0.0
2015-Jun-30 16:26N 40°38' W 074°08'0 0.0
2015-Jun-30 15:29N 40°38' W 074°08'0 0.0
2015-Jun-30 14:32N 40°38' W 074°08'0 0.0
2015-Jun-30 13:29N 40°38' W 074°08'0 0.0
2015-Jun-30 12:29N 40°38' W 074°08'0 0.0
2015-Jun-30 11:26N 40°38' W 074°08'0 0.0
2015-Jun-30 10:32N 40°38' W 074°08'0 0.0
2015-Jun-30 09:26N 40°38' W 074°08'3 2.9
2015-Jun-30 08:33N 40°39' W 074°05'1111.0
2015-Jun-30 07:33N 40°30' W 073°56'1110.7
2015-Jun-30 06:33N 40°19' W 073°54'1211.8
2015-Jun-30 05:33N 40°08' W 073°56'1211.7
2015-Jun-30 04:33N 39°56' W 073°57'8011.4
2015-Jun-29 21:33N 38°49' W 074°53'9 8.6
2015-Jun-29 20:33N 38°52' W 075°04'5112.3
2015-Jun-29 16:24N 39°37' W 075°35'1011.4
2015-Jun-29 15:33N 39°46' W 075°29'9 9.0
2015-Jun-29 14:33N 39°51' W 075°19'7 6.7
2015-Jun-29 13:32N 39°53' W 075°11'0 0.0
2015-Jun-29 12:29N 39°53' W 075°11'0 0.0
2015-Jun-29 11:31N 39°53' W 075°11'0 0.0
2015-Jun-29 10:31N 39°53' W 075°11'0 0.0
2015-Jun-29 09:31N 39°53' W 075°11'5 4.8
2015-Jun-29 08:33N 39°51' W 075°16'1 0.5
2015-Jun-29 07:33N 39°51' W 075°15'2 2.4
2015-Jun-29 06:33N 39°52' W 075°13'0 0.0
2015-Jun-29 05:33N 39°52' W 075°12'0 0.2
2015-Jun-29 04:33N 39°52' W 075°12'0 0.0
2015-Jun-29 03:33N 39°52' W 075°12'0 0.0
2015-Jun-29 02:33N 39°52' W 075°12'0 0.0
2015-Jun-29 01:33N 39°52' W 075°12'0 0.0
2015-Jun-29 00:33N 39°52' W 075°12'0 0.0
2015-Jun-28 23:33N 39°52' W 075°12'0 0.1
2015-Jun-28 22:33N 39°52' W 075°12'0 0.1
2015-Jun-28 21:33N 39°52' W 075°12'0 0.0
2015-Jun-28 20:33N 39°52' W 075°12'0 0.0
2015-Jun-28 19:32N 39°52' W 075°13'0 0.0
2015-Jun-28 18:32N 39°52' W 075°13'0 0.0
2015-Jun-28 17:32N 39°52' W 075°12'0 0.1
2015-Jun-28 16:32N 39°52' W 075°12'0 0.1
2015-Jun-28 15:32N 39°52' W 075°12'0 0.0
2015-Jun-28 14:32N 39°52' W 075°12'0 0.0
2015-Jun-28 13:32N 39°52' W 075°12'0 0.0
2015-Jun-28 12:32N 39°52' W 075°12'0 0.0
2015-Jun-28 11:32N 39°52' W 075°12'0 0.1
2015-Jun-28 10:32N 39°52' W 075°12'0 0.1
2015-Jun-28 09:32N 39°52' W 075°13'0 0.0
2015-Jun-28 08:32N 39°52' W 075°12'0 0.0
2015-Jun-28 07:32N 39°52' W 075°13'0 0.0
2015-Jun-28 06:32N 39°52' W 075°12'0 0.0
2015-Jun-28 05:32N 39°52' W 075°12'0 0.0
2015-Jun-28 04:32N 39°52' W 075°12'0 0.0
2015-Jun-28 03:32N 39°52' W 075°12'0 0.1
2015-Jun-28 02:32N 39°52' W 075°12'0 0.0
2015-Jun-28 01:32N 39°52' W 075°12'0 0.0
2015-Jun-28 00:32N 39°52' W 075°12'0 0.0
2015-Jun-27 23:32N 39°52' W 075°12'0 0.1
2015-Jun-27 22:29N 39°52' W 075°12'0 0.1
2015-Jun-27 21:32N 39°52' W 075°13'0 0.0
2015-Jun-27 20:29N 39°52' W 075°13'0 0.0
2015-Jun-27 19:32N 39°52' W 075°13'0 0.0
2015-Jun-27 18:32N 39°52' W 075°13'0 0.0
2015-Jun-27 17:32N 39°52' W 075°13'0 0.0
2015-Jun-27 16:32N 39°52' W 075°13'0 0.0
2015-Jun-27 15:32N 39°52' W 075°13'1 1.3
2015-Jun-27 14:32N 39°51' W 075°14'0 0.0
2015-Jun-27 13:32N 39°51' W 075°14'3 3.0
2015-Jun-27 12:33N 39°53' W 075°11'0 0.0
2015-Jun-27 11:33N 39°53' W 075°11'0 0.0
2015-Jun-27 10:32N 39°53' W 075°11'0 0.0
2015-Jun-27 09:32N 39°53' W 075°11'0 0.0
2015-Jun-27 08:32N 39°53' W 075°11'0 0.0
2015-Jun-27 07:32N 39°53' W 075°11'0 0.0
2015-Jun-27 06:32N 39°53' W 075°11'0 0.0
2015-Jun-27 05:32N 39°53' W 075°11'0 0.0
2015-Jun-27 04:32N 39°53' W 075°11'0 0.0
2015-Jun-27 03:32N 39°53' W 075°11'0 0.0
2015-Jun-27 02:32N 39°53' W 075°11'0 0.0
2015-Jun-27 01:32N 39°53' W 075°11'0 0.0
2015-Jun-27 00:32N 39°53' W 075°11'0 0.0
2015-Jun-26 23:32N 39°53' W 075°11'0 0.0
2015-Jun-26 22:32N 39°53' W 075°11'0 0.0
2015-Jun-26 21:29N 39°53' W 075°11'0 0.0
2015-Jun-26 20:32N 39°53' W 075°11'0 0.0
2015-Jun-26 19:32N 39°53' W 075°11'0 0.0
2015-Jun-26 18:32N 39°53' W 075°11'0 0.0
2015-Jun-26 17:29N 39°53' W 075°11'0 0.0
2015-Jun-26 16:32N 39°53' W 075°11'0 0.0
2015-Jun-26 15:32N 39°53' W 075°11'0 0.0
2015-Jun-26 14:32N 39°53' W 075°11'0 0.0
2015-Jun-26 13:32N 39°53' W 075°11'0 0.0
2015-Jun-26 12:32N 39°53' W 075°11'0 0.0
2015-Jun-26 11:32N 39°53' W 075°11'0 0.0
2015-Jun-26 10:32N 39°53' W 075°11'0 0.0
2015-Jun-26 09:33N 39°53' W 075°11'0 0.0
2015-Jun-26 08:33N 39°53' W 075°11'0 0.0
2015-Jun-26 07:33N 39°53' W 075°11'0 0.0
2015-Jun-26 06:33N 39°53' W 075°11'0 0.0
2015-Jun-26 05:33N 39°53' W 075°11'0 0.0
2015-Jun-26 04:32N 39°53' W 075°11'0 0.0
2015-Jun-26 03:32N 39°53' W 075°11'3 2.9
2015-Jun-26 02:31N 39°51' W 075°14'0 0.0
2015-Jun-26 01:31N 39°51' W 075°14'0 0.5
2015-Jun-26 00:33N 39°52' W 075°13'0 0.0
2015-Jun-25 23:33N 39°52' W 075°13'0 0.0
2015-Jun-25 22:33N 39°52' W 075°13'0 0.0
2015-Jun-25 21:33N 39°52' W 075°13'0 0.0
2015-Jun-25 20:33N 39°52' W 075°13'0 0.1
2015-Jun-25 19:33N 39°52' W 075°13'0 0.0
2015-Jun-25 18:33N 39°52' W 075°13'0 0.0
2015-Jun-25 17:33N 39°52' W 075°13'0 0.0
2015-Jun-25 16:33N 39°52' W 075°13'0 0.0
2015-Jun-25 15:33N 39°52' W 075°13'0 0.0
2015-Jun-25 14:33N 39°52' W 075°13'0 0.1
2015-Jun-25 13:33N 39°52' W 075°13'0 0.0
2015-Jun-25 12:33N 39°52' W 075°13'0 0.0
2015-Jun-25 11:33N 39°52' W 075°13'0 0.0
2015-Jun-25 10:33N 39°52' W 075°13'0 0.0
2015-Jun-25 09:32N 39°52' W 075°13'0 0.0
2015-Jun-25 08:32N 39°52' W 075°13'0 0.1
2015-Jun-25 07:29N 39°52' W 075°13'0 0.0
2015-Jun-25 06:32N 39°52' W 075°13'0 0.0
2015-Jun-25 05:32N 39°52' W 075°13'0 0.0
2015-Jun-25 04:32N 39°52' W 075°13'0 0.0
2015-Jun-25 03:32N 39°52' W 075°13'0 0.0
2015-Jun-25 02:32N 39°52' W 075°13'0 0.1
2015-Jun-25 01:32N 39°52' W 075°13'2 1.9
2015-Jun-25 00:29N 39°51' W 075°16'2 2.2
2015-Jun-24 23:32N 39°52' W 075°13'0 0.0
2015-Jun-24 22:33N 39°52' W 075°13'1 1.5
2015-Jun-24 21:33N 39°53' W 075°12'2 1.7
2015-Jun-24 20:32N 39°52' W 075°14'2 2.1
2015-Jun-24 19:33N 39°53' W 075°12'1 0.6
2015-Jun-24 18:30N 39°54' W 075°12'1 0.9
2015-Jun-24 17:33N 39°53' W 075°11'0 0.0
2015-Jun-24 16:33N 39°53' W 075°11'3 2.7
2015-Jun-24 15:33N 39°52' W 075°14'3 2.6
2015-Jun-24 14:31N 39°53' W 075°11'3 2.7
2015-Jun-24 13:30N 39°52' W 075°13'0 0.0
2015-Jun-24 12:24N 39°52' W 075°13'0 0.1
2015-Jun-24 11:33N 39°52' W 075°13'0 0.0
2015-Jun-24 10:33N 39°52' W 075°13'0 0.0
2015-Jun-24 09:33N 39°52' W 075°13'0 0.0
2015-Jun-24 08:33N 39°52' W 075°13'0 0.0
2015-Jun-24 07:33N 39°52' W 075°13'0 0.0
2015-Jun-24 06:33N 39°52' W 075°13'0 0.0
2015-Jun-24 05:33N 39°52' W 075°13'0 0.0
2015-Jun-24 04:33N 39°52' W 075°13'0 0.0
2015-Jun-24 03:33N 39°52' W 075°13'0 0.0
2015-Jun-24 02:33N 39°52' W 075°13'0 0.0
2015-Jun-24 01:33N 39°52' W 075°13'0 0.1
2015-Jun-24 00:33N 39°52' W 075°13'0 0.0
2015-Jun-23 23:33N 39°52' W 075°13'0 0.1
2015-Jun-23 22:32N 39°52' W 075°13'0 0.2
2015-Jun-23 21:31N 39°52' W 075°13'0 0.0
2015-Jun-23 20:31N 39°52' W 075°13'0 0.0
2015-Jun-23 19:31N 39°52' W 075°13'0 0.0
2015-Jun-23 19:04N 39°52' W 075°13'16 0.7
2015-Jun-22 19:31N 39°43' W 075°31'0 0.0
2015-Jun-22 18:31N 39°43' W 075°31'0 0.0
2015-Jun-22 17:34N 39°43' W 075°31'0 0.0
2015-Jun-22 16:34N 39°43' W 075°31'0 0.0
2015-Jun-22 15:33N 39°43' W 075°31'0 0.0
2015-Jun-22 14:33N 39°43' W 075°31'0 0.0
2015-Jun-22 13:33N 39°43' W 075°31'0 0.0
2015-Jun-22 12:27N 39°43' W 075°31'0 0.0
2015-Jun-22 11:33N 39°43' W 075°31'0 0.1
2015-Jun-22 10:33N 39°43' W 075°31'1 0.7
2015-Jun-22 09:33N 39°42' W 075°31'6 5.7
2015-Jun-22 08:33N 39°38' W 075°35'5 4.9
2015-Jun-22 07:33N 39°33' W 075°38'6 6.4
2015-Jun-22 06:33N 39°32' W 075°46'7 6.5
2015-Jun-22 05:33N 39°31' W 075°54'8 7.7
2015-Jun-22 04:33N 39°25' W 076°01'8 8.0
2015-Jun-22 03:33N 39°21' W 076°10'8 7.9
2015-Jun-22 02:33N 39°14' W 076°14'7 7.1
2015-Jun-22 01:33N 39°09' W 076°21'8 7.9
2015-Jun-22 00:33N 39°12' W 076°31'5 5.0
2015-Jun-21 23:32N 39°16' W 076°34'1 0.1
2015-Jun-21 13:04N 39°17' W 076°36'  
Track history (hours):
 
Tides and Currents Weather Stations Pressure Air Temp Water Temp Dewpoint Dewpoint Depression Visibility Wind Speed Wind Dir Waves Ship Positions

Kimberly Turecamo

Owner: Moran Towing Corporation, New Canaan, CT. More information available from US FCC via Universal Licensing System and Coast Guard Vessel Documentation Center.

Last reported at 2015-Jul-01 12:31 UTC. Time now 2015-Jul-05 04:23 UTC.
Position N 40°38' W 074°07'.

Length 33 m; draft 5 m.

Type: Tug. MMSI: 367061980.

Date/timePositionNaut miles runAvg speedWind from/ knotsBaromVisibWave heightAir tempDewpointWater temp
2015-Jul-01 12:31N 40°38' W 074°07'0 0.0
2015-Jul-01 11:31N 40°38' W 074°07'0 0.5
2015-Jul-01 10:33N 40°38' W 074°08'0 0.0
2015-Jul-01 09:33N 40°38' W 074°08'0 0.0
2015-Jul-01 08:33N 40°38' W 074°08'0 0.0
2015-Jul-01 07:32N 40°38' W 074°08'0 0.0
2015-Jul-01 06:32N 40°38' W 074°08'0 0.0
2015-Jul-01 05:32N 40°38' W 074°08'0 0.0
2015-Jul-01 04:32N 40°38' W 074°08'0 0.0
2015-Jul-01 03:32N 40°38' W 074°08'0 0.0
2015-Jul-01 02:32N 40°38' W 074°08'0 0.0
2015-Jul-01 01:32N 40°38' W 074°08'0 0.0
2015-Jul-01 00:32N 40°38' W 074°08'0 0.0
2015-Jun-30 23:32N 40°38' W 074°08'0 0.0
2015-Jun-30 22:32N 40°38' W 074°08'0 0.0
2015-Jun-30 21:32N 40°38' W 074°08'0 0.0
2015-Jun-30 20:32N 40°38' W 074°08'0 0.0
2015-Jun-30 19:32N 40°38' W 074°08'0 0.0
2015-Jun-30 18:32N 40°38' W 074°08'0 0.0
2015-Jun-30 17:32N 40°38' W 074°08'0 0.0
2015-Jun-30 16:26N 40°38' W 074°08'0 0.0
2015-Jun-30 15:29N 40°38' W 074°08'0 0.0
2015-Jun-30 14:32N 40°38' W 074°08'0 0.0
2015-Jun-30 13:29N 40°38' W 074°08'0 0.0
2015-Jun-30 12:29N 40°38' W 074°08'0 0.0
2015-Jun-30 11:26N 40°38' W 074°08'0 0.0
2015-Jun-30 10:32N 40°38' W 074°08'0 0.0
2015-Jun-30 09:26N 40°38' W 074°08'3 2.9
2015-Jun-30 08:33N 40°39' W 074°05'1111.0
2015-Jun-30 07:33N 40°30' W 073°56'1110.7
2015-Jun-30 06:33N 40°19' W 073°54'1211.8
2015-Jun-30 05:33N 40°08' W 073°56'1211.7
2015-Jun-30 04:33N 39°56' W 073°57'8011.4
2015-Jun-29 21:33N 38°49' W 074°53'9 8.6
2015-Jun-29 20:33N 38°52' W 075°04'5112.3
2015-Jun-29 16:24N 39°37' W 075°35'1011.4
2015-Jun-29 15:33N 39°46' W 075°29'9 9.0
2015-Jun-29 14:33N 39°51' W 075°19'7 6.7
2015-Jun-29 13:32N 39°53' W 075°11'0 0.0
2015-Jun-29 12:29N 39°53' W 075°11'0 0.0
2015-Jun-29 11:31N 39°53' W 075°11'0 0.0
2015-Jun-29 10:31N 39°53' W 075°11'0 0.0
2015-Jun-29 09:31N 39°53' W 075°11'5 4.8
2015-Jun-29 08:33N 39°51' W 075°16'1 0.5
2015-Jun-29 07:33N 39°51' W 075°15'2 2.4
2015-Jun-29 06:33N 39°52' W 075°13'0 0.0
2015-Jun-29 05:33N 39°52' W 075°12'0 0.2
2015-Jun-29 04:33N 39°52' W 075°12'0 0.0
2015-Jun-29 03:33N 39°52' W 075°12'0 0.0
2015-Jun-29 02:33N 39°52' W 075°12'0 0.0
2015-Jun-29 01:33N 39°52' W 075°12'0 0.0
2015-Jun-29 00:33N 39°52' W 075°12'0 0.0
2015-Jun-28 23:33N 39°52' W 075°12'0 0.1
2015-Jun-28 22:33N 39°52' W 075°12'0 0.1
2015-Jun-28 21:33N 39°52' W 075°12'0 0.0
2015-Jun-28 20:33N 39°52' W 075°12'0 0.0
2015-Jun-28 19:32N 39°52' W 075°13'0 0.0
2015-Jun-28 18:32N 39°52' W 075°13'0 0.0
2015-Jun-28 17:32N 39°52' W 075°12'0 0.1
2015-Jun-28 16:32N 39°52' W 075°12'0 0.1
2015-Jun-28 15:32N 39°52' W 075°12'0 0.0
2015-Jun-28 14:32N 39°52' W 075°12'0 0.0
2015-Jun-28 13:32N 39°52' W 075°12'0 0.0
2015-Jun-28 12:32N 39°52' W 075°12'0 0.0
2015-Jun-28 11:32N 39°52' W 075°12'0 0.1
2015-Jun-28 10:32N 39°52' W 075°12'0 0.1
2015-Jun-28 09:32N 39°52' W 075°13'0 0.0
2015-Jun-28 08:32N 39°52' W 075°12'0 0.0
2015-Jun-28 07:32N 39°52' W 075°13'0 0.0
2015-Jun-28 06:32N 39°52' W 075°12'0 0.0
2015-Jun-28 05:32N 39°52' W 075°12'0 0.0
2015-Jun-28 04:32N 39°52' W 075°12'0 0.0
2015-Jun-28 03:32N 39°52' W 075°12'0 0.1
2015-Jun-28 02:32N 39°52' W 075°12'0 0.0
2015-Jun-28 01:32N 39°52' W 075°12'0 0.0
2015-Jun-28 00:32N 39°52' W 075°12'0 0.0
2015-Jun-27 23:32N 39°52' W 075°12'0 0.1
2015-Jun-27 22:29N 39°52' W 075°12'0 0.1
2015-Jun-27 21:32N 39°52' W 075°13'0 0.0
2015-Jun-27 20:29N 39°52' W 075°13'0 0.0
2015-Jun-27 19:32N 39°52' W 075°13'0 0.0
2015-Jun-27 18:32N 39°52' W 075°13'0 0.0
2015-Jun-27 17:32N 39°52' W 075°13'0 0.0
2015-Jun-27 16:32N 39°52' W 075°13'0 0.0
2015-Jun-27 15:32N 39°52' W 075°13'1 1.3
2015-Jun-27 14:32N 39°51' W 075°14'0 0.0
2015-Jun-27 13:32N 39°51' W 075°14'3 3.0
2015-Jun-27 12:33N 39°53' W 075°11'0 0.0
2015-Jun-27 11:33N 39°53' W 075°11'0 0.0
2015-Jun-27 10:32N 39°53' W 075°11'0 0.0
2015-Jun-27 09:32N 39°53' W 075°11'0 0.0
2015-Jun-27 08:32N 39°53' W 075°11'0 0.0
2015-Jun-27 07:32N 39°53' W 075°11'0 0.0
2015-Jun-27 06:32N 39°53' W 075°11'0 0.0
2015-Jun-27 05:32N 39°53' W 075°11'0 0.0
2015-Jun-27 04:32N 39°53' W 075°11'0 0.0
2015-Jun-27 03:32N 39°53' W 075°11'0 0.0
2015-Jun-27 02:32N 39°53' W 075°11'0 0.0
2015-Jun-27 01:32N 39°53' W 075°11'0 0.0
2015-Jun-27 00:32N 39°53' W 075°11'0 0.0
2015-Jun-26 23:32N 39°53' W 075°11'0 0.0
2015-Jun-26 22:32N 39°53' W 075°11'0 0.0
2015-Jun-26 21:29N 39°53' W 075°11'0 0.0
2015-Jun-26 20:32N 39°53' W 075°11'0 0.0
2015-Jun-26 19:32N 39°53' W 075°11'0 0.0
2015-Jun-26 18:32N 39°53' W 075°11'0 0.0
2015-Jun-26 17:29N 39°53' W 075°11'0 0.0
2015-Jun-26 16:32N 39°53' W 075°11'0 0.0
2015-Jun-26 15:32N 39°53' W 075°11'0 0.0
2015-Jun-26 14:32N 39°53' W 075°11'0 0.0
2015-Jun-26 13:32N 39°53' W 075°11'0 0.0
2015-Jun-26 12:32N 39°53' W 075°11'0 0.0
2015-Jun-26 11:32N 39°53' W 075°11'0 0.0
2015-Jun-26 10:32N 39°53' W 075°11'0 0.0
2015-Jun-26 09:33N 39°53' W 075°11'0 0.0
2015-Jun-26 08:33N 39°53' W 075°11'0 0.0
2015-Jun-26 07:33N 39°53' W 075°11'0 0.0
2015-Jun-26 06:33N 39°53' W 075°11'0 0.0
2015-Jun-26 05:33N 39°53' W 075°11'0 0.0
2015-Jun-26 04:32N 39°53' W 075°11'0 0.0
2015-Jun-26 03:32N 39°53' W 075°11'3 2.9
2015-Jun-26 02:31N 39°51' W 075°14'0 0.0
2015-Jun-26 01:31N 39°51' W 075°14'0 0.5
2015-Jun-26 00:33N 39°52' W 075°13'0 0.0
2015-Jun-25 23:33N 39°52' W 075°13'0 0.0
2015-Jun-25 22:33N 39°52' W 075°13'0 0.0
2015-Jun-25 21:33N 39°52' W 075°13'0 0.0
2015-Jun-25 20:33N 39°52' W 075°13'0 0.1
2015-Jun-25 19:33N 39°52' W 075°13'0 0.0
2015-Jun-25 18:33N 39°52' W 075°13'0 0.0
2015-Jun-25 17:33N 39°52' W 075°13'0 0.0
2015-Jun-25 16:33N 39°52' W 075°13'0 0.0
2015-Jun-25 15:33N 39°52' W 075°13'0 0.0
2015-Jun-25 14:33N 39°52' W 075°13'0 0.1
2015-Jun-25 13:33N 39°52' W 075°13'0 0.0
2015-Jun-25 12:33N 39°52' W 075°13'0 0.0
2015-Jun-25 11:33N 39°52' W 075°13'0 0.0
2015-Jun-25 10:33N 39°52' W 075°13'0 0.0
2015-Jun-25 09:32N 39°52' W 075°13'0 0.0
2015-Jun-25 08:32N 39°52' W 075°13'0 0.1
2015-Jun-25 07:29N 39°52' W 075°13'0 0.0
2015-Jun-25 06:32N 39°52' W 075°13'0 0.0
2015-Jun-25 05:32N 39°52' W 075°13'0 0.0
2015-Jun-25 04:32N 39°52' W 075°13'0 0.0
2015-Jun-25 03:32N 39°52' W 075°13'0 0.0
2015-Jun-25 02:32N 39°52' W 075°13'0 0.1
2015-Jun-25 01:32N 39°52' W 075°13'2 1.9
2015-Jun-25 00:29N 39°51' W 075°16'2 2.2
2015-Jun-24 23:32N 39°52' W 075°13'0 0.0
2015-Jun-24 22:33N 39°52' W 075°13'1 1.5
2015-Jun-24 21:33N 39°53' W 075°12'2 1.7
2015-Jun-24 20:32N 39°52' W 075°14'2 2.1
2015-Jun-24 19:33N 39°53' W 075°12'1 0.6
2015-Jun-24 18:30N 39°54' W 075°12'1 0.9
2015-Jun-24 17:33N 39°53' W 075°11'0 0.0
2015-Jun-24 16:33N 39°53' W 075°11'3 2.7
2015-Jun-24 15:33N 39°52' W 075°14'3 2.6
2015-Jun-24 14:31N 39°53' W 075°11'3 2.7
2015-Jun-24 13:30N 39°52' W 075°13'0 0.0
2015-Jun-24 12:24N 39°52' W 075°13'0 0.1
2015-Jun-24 11:33N 39°52' W 075°13'0 0.0
2015-Jun-24 10:33N 39°52' W 075°13'0 0.0
2015-Jun-24 09:33N 39°52' W 075°13'0 0.0
2015-Jun-24 08:33N 39°52' W 075°13'0 0.0
2015-Jun-24 07:33N 39°52' W 075°13'0 0.0
2015-Jun-24 06:33N 39°52' W 075°13'0 0.0
2015-Jun-24 05:33N 39°52' W 075°13'0 0.0
2015-Jun-24 04:33N 39°52' W 075°13'0 0.0
2015-Jun-24 03:33N 39°52' W 075°13'0 0.0
2015-Jun-24 02:33N 39°52' W 075°13'0 0.0
2015-Jun-24 01:33N 39°52' W 075°13'0 0.1
2015-Jun-24 00:33N 39°52' W 075°13'0 0.0
2015-Jun-23 23:33N 39°52' W 075°13'0 0.1
2015-Jun-23 22:32N 39°52' W 075°13'0 0.2
2015-Jun-23 21:31N 39°52' W 075°13'0 0.0
2015-Jun-23 20:31N 39°52' W 075°13'0 0.0
2015-Jun-23 19:31N 39°52' W 075°13'0 0.0
2015-Jun-23 19:04N 39°52' W 075°13'16 0.7
2015-Jun-22 19:31N 39°43' W 075°31'0 0.0
2015-Jun-22 18:31N 39°43' W 075°31'0 0.0
2015-Jun-22 17:34N 39°43' W 075°31'0 0.0
2015-Jun-22 16:34N 39°43' W 075°31'0 0.0
2015-Jun-22 15:33N 39°43' W 075°31'0 0.0
2015-Jun-22 14:33N 39°43' W 075°31'0 0.0
2015-Jun-22 13:33N 39°43' W 075°31'0 0.0
2015-Jun-22 12:27N 39°43' W 075°31'0 0.0
2015-Jun-22 11:33N 39°43' W 075°31'0 0.1
2015-Jun-22 10:33N 39°43' W 075°31'1 0.7
2015-Jun-22 09:33N 39°42' W 075°31'6 5.7
2015-Jun-22 08:33N 39°38' W 075°35'5 4.9
2015-Jun-22 07:33N 39°33' W 075°38'6 6.4
2015-Jun-22 06:33N 39°32' W 075°46'7 6.5
2015-Jun-22 05:33N 39°31' W 075°54'8 7.7
2015-Jun-22 04:33N 39°25' W 076°01'8 8.0
2015-Jun-22 03:33N 39°21' W 076°10'8 7.9
2015-Jun-22 02:33N 39°14' W 076°14'7 7.1
2015-Jun-22 01:33N 39°09' W 076°21'8 7.9
2015-Jun-22 00:33N 39°12' W 076°31'5 5.0
2015-Jun-21 23:32N 39°16' W 076°34'1 0.1
2015-Jun-21 13:04N 39°17' W 076°36'  

Dump ship's entire track history